Tiverton, Rhode Island
Current Conditions -  °F | °C
As of 1:53 AM on Saturday 20 Dec 2014 (Local Time) from KUUU Reporting Station
Clear Clear  
Wind Chill: -6°   Ceiling: Unl
Heat Index: -2°   Visibility: 10mi
Dew Point: -7°   Wind: 8mph
Humidity: 69%   Direction: 360°N
Pressure: 30.16"   Gusts: NA
Location:  41.62°N, 71.21°W
Report Text: KUUU 200653Z AUTO 36007KT 10SM CLR M02/M07 A3016 RMK AO2 SLP212 T10171067
Loading
Personal Weather Stations






























Interactive Weather Map New forecast layout! Learn more

10-Day Weather Forecast

Advertisements
Track Severe Weather on mobile